Oconto, WI

5:55 PM CST on February 26, 2015 (GMT -0600)
Oconto Municipal | Change Station
CLOSE
Current Station
Airport
Location: Oconto,
Elevation: 604 ft
Nearby Weather Stations
Active Advisory: Special Statement

Elev 604 ft 44.87 °N, 87.91 °W | Updated 20 minutes ago

Clear
Clear
8 °F
Feels Like 1 °F
N
4
Wind Variable Wind from SSE

Today
High -- | Low -- °F
--% Chance of Precip.
Yesterday
High -- | Low -- °F
Precip. -- in
6:34 AM 5:34 PM
Waxing Gibbous, 63% visible
Pressure 30.33 in
Visibility 10.0 miles
Clouds Clear
Windchill 1 °F
Dew Point -2 °F
Humidity 64%
Rainfall 0.00 in
Snow Depth Not available.
UV 0 out of 12
Pollen .30 out of 12
Air Quality Not available.
Flu Activity Not available.
METAR KOCQ 262335Z AUTO 15003KT 10SM CLR M14/M19 A3033 RMK AO1 T11361191

More Conditions Fewer Conditions

Pressure 30.33 in
Visibility 10.0 miles
Clouds Clear
Windchill 1 °F
Dew Point -2 °F
Humidity 64%
Rainfall 0.00 in
Snow Depth Not available.
UV 0 out of 12
Pollen .30 out of 12
Air Quality Not available.
Flu Activity Not available.
METAR KOCQ 262335Z AUTO 15003KT 10SM CLR M14/M19 A3033 RMK AO1 T11361191

More Conditions Fewer Conditions

10-Day Weather Forecast

Almanac

Astronomy

Feb. 26, 2015 Rise Set
Actual Time
Civil Twilight
Nautical Twilight
Astronomical Twilight
Moon
Length of Visible Light
Length of Day
Tomorrow will be .
, % of the Moon is Illuminated

Today's Extremes

State Highs State Lows

Community

WunderPhotos

Upload Photos

1,800,529 photos uploaded!

WunderBlogs® & News

Nearby

Air Quality

  Air Quality AQ Index Pollutant
Not available.

Snow Depth

Station Depth Elevation

Earthquake Activity

City Distance Mag. Time & Date
Minimum magnitude displayed is 2.5.

Coastal Water Temperatures

Place Temperature

Nearby Weather Stations

Special Statement
Statement as of 2:42 PM CST on February 26, 2015

... Sub zero temperatures again tonight...

Arctic air will continue to feed into the area tonight into Friday on
northwest winds. Overnight lows are expected to range from 15
below to 25 below zero over north central Wisconsin... 10 below to
15 below zero across central Wisconsin... to 5 below to 12 below
zero over northeast Wisconsin. Winds tonight will vary from calm
to 7 mph to produce pockets of wind chill readings of 20 to 30
below zero. If proper precautions are not taken... wind chills this
low can result in frost bite to exposed skin in 30 minutes. Be
sure to dress appropriately if heading outside late tonight or
tomorrow morning.

Tdh